createdAt,value
2019-02-05T00:02:25.606Z,21.87
2019-02-05T00:04:53.305Z,18.00
2019-02-05T00:07:21.036Z,20.60
2019-02-05T00:09:48.961Z,16.63
2019-02-05T00:12:16.677Z,18.13
2019-02-05T00:14:44.413Z,21.50
2019-02-05T00:17:12.134Z,18.20
2019-02-05T00:19:39.865Z,13.83
2019-02-05T00:22:07.601Z,12.97
2019-02-05T00:24:35.352Z,16.30
2019-02-05T00:27:03.064Z,16.23
2019-02-05T00:29:31.583Z,16.47
2019-02-05T00:32:00.317Z,19.43
2019-02-05T00:34:28.111Z,20.90
2019-02-05T00:36:55.761Z,15.60
2019-02-05T00:39:23.484Z,15.43
2019-02-05T00:41:51.189Z,16.43
2019-02-05T00:44:18.942Z,19.40
2019-02-05T00:46:46.652Z,20.50
2019-02-05T00:49:14.381Z,17.07
2019-02-05T00:51:42.113Z,17.97
2019-02-05T00:54:09.845Z,19.00
2019-02-05T00:56:37.577Z,21.33
2019-02-05T00:59:05.608Z,18.13
2019-02-05T01:01:33.313Z,21.53
2019-02-05T01:04:01.089Z,21.83
2019-02-05T01:06:28.817Z,25.40
2019-02-05T01:08:56.552Z,20.77
2019-02-05T01:11:24.297Z,27.30
2019-02-05T01:13:52.014Z,30.50
2019-02-05T01:16:20.036Z,31.23
2019-02-05T01:18:47.737Z,25.87
2019-02-05T01:21:15.487Z,22.07
2019-02-05T01:23:43.237Z,36.07
2019-02-05T01:26:10.950Z,30.43
2019-02-05T01:28:38.689Z,24.17
2019-02-05T01:31:06.476Z,22.90
2019-02-05T01:33:34.426Z,25.23
2019-02-05T01:36:02.129Z,23.30
2019-02-05T01:38:29.847Z,27.60
2019-02-05T01:40:57.586Z,29.60
2019-02-05T01:43:25.289Z,29.33
2019-02-05T01:45:53.017Z,28.43
2019-02-05T01:48:21.217Z,28.93
2019-02-05T01:50:48.965Z,26.23
2019-02-05T01:53:16.681Z,30.10
2019-02-05T01:55:44.891Z,29.00
2019-02-05T01:58:12.614Z,24.97
2019-02-05T02:00:40.317Z,28.07
2019-02-05T02:03:08.048Z,30.07
2019-02-05T02:05:35.764Z,30.27
2019-02-05T02:08:03.505Z,27.77
2019-02-05T02:10:31.258Z,26.40
2019-02-05T02:12:58.956Z,28.27
2019-02-05T02:15:26.720Z,26.57
2019-02-05T02:17:54.433Z,26.83
2019-02-05T02:20:22.187Z,23.57
2019-02-05T02:22:49.888Z,25.23
2019-02-05T02:25:17.626Z,25.57
2019-02-05T02:27:45.425Z,22.80
2019-02-05T02:30:36.344Z,23.57
2019-02-05T02:33:04.516Z,22.03
2019-02-05T02:35:32.524Z,23.87
2019-02-05T02:38:00.474Z,23.93
2019-02-05T02:40:28.317Z,23.97
2019-02-05T02:42:56.047Z,24.63
2019-02-05T02:45:23.751Z,26.67
2019-02-05T02:47:51.483Z,24.53
2019-02-05T02:50:19.227Z,22.07
2019-02-05T02:52:47.362Z,25.67
2019-02-05T02:55:15.085Z,23.87
2019-02-05T02:57:42.817Z,23.37
2019-02-05T03:00:12.956Z,24.60
2019-02-05T03:02:40.770Z,24.47
2019-02-05T03:05:10.557Z,24.23
2019-02-05T03:07:38.254Z,23.70
2019-02-05T03:10:08.942Z,25.67
2019-02-05T03:12:36.682Z,23.40
2019-02-05T03:15:05.136Z,24.30
2019-02-05T03:17:32.849Z,27.00
2019-02-05T03:20:00.678Z,21.37
2019-02-05T03:22:28.390Z,22.33
2019-02-05T03:24:56.113Z,25.47
2019-02-05T03:27:23.839Z,22.83
2019-02-05T03:29:51.756Z,20.10
2019-02-05T03:32:19.530Z,25.57
2019-02-05T03:34:47.202Z,22.53
2019-02-05T03:37:15.013Z,23.33
2019-02-05T03:39:42.738Z,26.30
2019-02-05T03:42:10.438Z,23.53
2019-02-05T03:44:38.185Z,25.27
2019-02-05T03:47:05.903Z,24.93
2019-02-05T03:49:34.027Z,21.27
2019-02-05T03:52:20.922Z,21.17
2019-02-05T03:55:48.581Z,22.50
2019-02-05T03:58:41.725Z,21.87
2019-02-05T04:01:36.017Z,18.60
2019-02-05T04:04:40.267Z,23.33
2019-02-05T04:07:59.460Z,20.97
2019-02-05T04:11:17.570Z,21.87
2019-02-05T04:13:59.958Z,20.97
2019-02-05T04:16:56.661Z,20.90
2019-02-05T04:20:15.184Z,18.70
2019-02-05T04:23:26.423Z,19.53
2019-02-05T04:26:39.131Z,23.73
2019-02-05T04:30:00.521Z,21.20
2019-02-05T04:32:35.042Z,19.67
2019-02-05T04:35:47.061Z,20.67
2019-02-05T04:39:17.301Z,22.13
2019-02-05T04:42:20.029Z,22.63
2019-02-05T04:45:10.362Z,23.03
2019-02-05T04:48:22.810Z,22.40
2019-02-05T04:51:13.234Z,25.90
2019-02-05T04:54:10.481Z,26.03
2019-02-05T04:56:58.586Z,24.97
2019-02-05T05:00:02.536Z,29.23
2019-02-05T05:03:08.090Z,30.00
2019-02-05T05:06:28.304Z,28.37
2019-02-05T05:09:47.143Z,25.67
2019-02-05T05:12:14.889Z,28.77
2019-02-05T05:14:42.797Z,23.27
2019-02-05T05:17:10.514Z,23.90
2019-02-05T05:19:38.238Z,30.13
2019-02-05T05:22:05.956Z,28.70
2019-02-05T05:24:33.705Z,29.73
2019-02-05T05:27:01.426Z,25.47
2019-02-05T05:29:29.176Z,23.57
2019-02-05T05:31:57.044Z,24.80
2019-02-05T05:34:24.752Z,28.50
2019-02-05T05:36:51.335Z,24.13
2019-02-05T05:39:19.438Z,23.20
2019-02-05T05:41:47.169Z,25.27
2019-02-05T05:44:14.869Z,23.40
2019-02-05T05:46:42.602Z,23.77
2019-02-05T05:49:10.316Z,23.33
2019-02-05T05:51:38.456Z,32.27
2019-02-05T05:54:06.201Z,21.23
2019-02-05T05:56:33.926Z,27.90
2019-02-05T05:59:01.668Z,32.03
2019-02-05T06:01:29.405Z,39.77
2019-02-05T06:03:57.169Z,26.47
2019-02-05T06:06:24.909Z,28.20
2019-02-05T06:08:52.701Z,29.53
2019-02-05T06:11:20.757Z,25.20
2019-02-05T06:13:48.489Z,23.57
2019-02-05T06:16:16.237Z,23.97
2019-02-05T06:18:43.953Z,21.80
2019-02-05T06:21:13.627Z,28.83
2019-02-05T06:23:41.255Z,26.17
2019-02-05T06:26:08.998Z,26.23
2019-02-05T06:28:37.050Z,28.00
2019-02-05T06:31:04.778Z,28.20
2019-02-05T06:33:32.563Z,23.43
2019-02-05T06:36:00.351Z,25.77
2019-02-05T06:38:28.104Z,28.63
2019-02-05T06:40:55.830Z,31.23
2019-02-05T06:43:23.605Z,26.97
2019-02-05T06:45:51.317Z,27.50
2019-02-05T06:48:19.034Z,29.83
2019-02-05T06:50:46.773Z,32.30
2019-02-05T06:53:14.520Z,27.93
2019-02-05T06:55:42.221Z,21.37
2019-02-05T06:58:09.952Z,21.00
2019-02-05T07:00:37.689Z,21.70
2019-02-05T07:03:06.430Z,22.47
2019-02-05T07:05:34.452Z,21.67
2019-02-05T07:08:02.184Z,23.53
2019-02-05T07:10:29.989Z,22.67
2019-02-05T07:12:57.732Z,22.53
2019-02-05T07:15:25.483Z,22.37
2019-02-05T07:17:53.181Z,21.67
2019-02-05T07:20:20.925Z,22.73
2019-02-05T07:22:48.645Z,26.57
2019-02-05T07:25:16.705Z,19.67
2019-02-05T07:27:44.438Z,23.67
2019-02-05T07:30:14.986Z,25.07
2019-02-05T07:32:42.713Z,19.07
2019-02-05T07:35:10.502Z,23.87
2019-02-05T07:37:38.513Z,18.67
2019-02-05T07:40:08.153Z,24.87
2019-02-05T07:42:36.086Z,25.00
2019-02-05T07:45:04.734Z,22.33
2019-02-05T07:47:32.481Z,19.03
2019-02-05T07:50:00.336Z,20.57
2019-02-05T07:52:28.053Z,22.53
2019-02-05T07:54:55.773Z,20.73
2019-02-05T07:57:23.549Z,19.00
2019-02-05T07:59:51.266Z,19.83
2019-02-05T08:02:19.307Z,24.67
2019-02-05T08:04:47.033Z,22.53
2019-02-05T08:07:14.761Z,25.57
2019-02-05T08:09:42.489Z,24.87
2019-02-05T08:12:10.250Z,24.30
2019-02-05T08:14:37.954Z,26.57
2019-02-05T08:17:05.673Z,22.73
2019-02-05T08:19:33.437Z,23.63
2019-02-05T08:22:01.465Z,20.80
2019-02-05T08:24:30.826Z,24.10
2019-02-05T08:26:58.566Z,33.63
2019-02-05T08:29:26.318Z,28.37
2019-02-05T08:31:54.023Z,25.80
2019-02-05T08:34:21.752Z,27.27
2019-02-05T08:36:49.499Z,27.43
2019-02-05T08:39:17.956Z,31.03
2019-02-05T08:41:45.741Z,25.97
2019-02-05T08:44:13.739Z,33.00
2019-02-05T08:46:41.483Z,27.83
2019-02-05T08:49:09.185Z,26.77
2019-02-05T08:51:36.893Z,28.20
2019-02-05T08:54:04.620Z,35.70
2019-02-05T08:56:32.333Z,31.33
2019-02-05T08:59:00.113Z,28.37
2019-02-05T09:01:27.842Z,30.33
2019-02-05T09:03:56.026Z,28.83
2019-02-05T09:06:23.748Z,27.47
2019-02-05T09:08:51.555Z,25.90
2019-02-05T09:11:19.277Z,29.93
2019-02-05T09:13:47.029Z,28.70
2019-02-05T09:16:14.757Z,32.87
2019-02-05T09:18:42.465Z,33.73
2019-02-05T09:21:10.197Z,31.87
2019-02-05T09:23:38.217Z,31.43
2019-02-05T09:26:05.955Z,27.93
2019-02-05T09:28:33.700Z,30.17
2019-02-05T09:31:01.480Z,26.07
2019-02-05T09:33:29.278Z,26.73
2019-02-05T09:35:57.084Z,32.20
2019-02-05T09:38:24.838Z,28.83
2019-02-05T09:40:52.538Z,28.17
2019-02-05T09:43:20.282Z,26.47
2019-02-05T09:45:48.015Z,23.37
2019-02-05T09:48:15.729Z,27.97
2019-02-05T09:50:44.891Z,27.67
2019-02-05T09:53:13.681Z,23.87
2019-02-05T09:55:41.409Z,27.60
2019-02-05T09:58:09.117Z,27.87
2019-02-05T10:00:38.247Z,26.20
2019-02-05T10:03:06.839Z,28.67
2019-02-05T10:05:34.617Z,22.73
2019-02-05T10:08:02.342Z,25.83
2019-02-05T10:10:30.081Z,24.50
2019-02-05T10:12:57.798Z,28.00
2019-02-05T10:15:27.805Z,24.13
2019-02-05T10:17:55.551Z,29.97
2019-02-05T10:20:23.412Z,23.67
2019-02-05T10:22:51.161Z,21.87
2019-02-05T10:25:18.874Z,25.93
2019-02-05T10:27:46.639Z,26.37
2019-02-05T10:30:26.089Z,25.07
2019-02-05T10:32:53.849Z,23.47
2019-02-05T10:35:21.924Z,23.87
2019-02-05T10:37:49.882Z,25.27
2019-02-05T10:40:17.670Z,22.47
2019-02-05T10:42:45.365Z,29.27
2019-02-05T10:45:14.145Z,26.80
2019-02-05T10:47:41.857Z,23.70
2019-02-05T10:50:10.918Z,24.97
2019-02-05T10:52:38.952Z,24.13
2019-02-05T10:55:08.179Z,22.73
2019-02-05T10:57:35.897Z,22.83
2019-02-05T11:00:09.138Z,24.30
2019-02-05T11:02:35.277Z,26.83
2019-02-05T11:05:03.033Z,22.23
2019-02-05T11:07:30.756Z,28.20
2019-02-05T11:09:59.773Z,31.17
2019-02-05T11:12:27.565Z,33.80
2019-02-05T11:14:55.393Z,27.22
2019-02-05T11:17:23.121Z,28.45
2019-02-05T11:19:50.871Z,25.83
2019-02-05T11:22:18.581Z,27.37
2019-02-05T11:24:46.304Z,32.10
2019-02-05T11:27:14.025Z,22.07
2019-02-05T11:29:42.041Z,25.60
2019-02-05T11:32:09.794Z,23.77
2019-02-05T11:34:37.518Z,22.73
2019-02-05T11:37:05.280Z,25.60
2019-02-05T11:39:32.982Z,23.73
2019-02-05T11:42:01.049Z,23.53
2019-02-05T11:44:28.797Z,21.57
2019-02-05T11:46:56.513Z,22.27
2019-02-05T11:49:24.565Z,24.47
2019-02-05T11:51:52.292Z,21.40
2019-02-05T11:54:20.139Z,21.87
2019-02-05T11:56:47.850Z,24.00
2019-02-05T11:59:15.577Z,25.50
2019-02-05T12:01:43.298Z,21.80
2019-02-05T12:04:11.029Z,24.03
2019-02-05T12:06:38.767Z,21.93
2019-02-05T12:09:19.352Z,23.97
2019-02-05T12:11:47.101Z,21.47
2019-02-05T12:14:14.874Z,23.93
2019-02-05T12:16:42.579Z,21.27
2019-02-05T12:19:10.315Z,22.50
2019-02-05T12:21:38.017Z,26.60
2019-02-05T12:24:05.760Z,26.17
2019-02-05T12:26:35.369Z,25.40
2019-02-05T12:29:03.975Z,29.80
2019-02-05T12:31:31.705Z,23.23
2019-02-05T12:33:59.409Z,26.80
2019-02-05T12:36:27.313Z,22.63
2019-02-05T12:38:55.026Z,24.60
2019-02-05T12:41:22.785Z,25.17
2019-02-05T12:43:50.825Z,24.93
2019-02-05T12:46:18.540Z,20.17
2019-02-05T12:48:46.289Z,21.67
2019-02-05T12:51:14.018Z,23.67
2019-02-05T12:53:41.757Z,23.13
2019-02-05T12:56:09.464Z,21.30
2019-02-05T12:58:37.203Z,20.00
2019-02-05T13:01:05.345Z,20.37
2019-02-05T13:03:34.288Z,18.40
2019-02-05T13:06:02.017Z,18.33
2019-02-05T13:08:30.163Z,19.70
2019-02-05T13:10:57.881Z,16.80
2019-02-05T13:13:25.605Z,17.50
2019-02-05T13:15:53.357Z,14.73
2019-02-05T13:18:21.389Z,15.13
2019-02-05T13:20:49.095Z,13.03
2019-02-05T13:23:16.834Z,14.57
2019-02-05T13:25:44.573Z,14.83
2019-02-05T13:28:13.165Z,13.20
2019-02-05T13:30:40.881Z,12.33
2019-02-05T13:33:08.982Z,14.70
2019-02-05T13:35:37.237Z,14.63
2019-02-05T13:38:05.425Z,14.17
2019-02-05T13:40:33.165Z,13.40
2019-02-05T13:43:00.961Z,12.30
2019-02-05T13:45:30.110Z,15.60
2019-02-05T13:47:57.842Z,12.33
2019-02-05T13:50:32.999Z,10.53
2019-02-05T13:52:57.157Z,9.60
2019-02-05T13:55:26.787Z,9.97
2019-02-05T13:57:54.517Z,9.93
2019-02-05T14:00:33.389Z,12.83
2019-02-05T14:03:01.141Z,12.87
2019-02-05T14:05:29.061Z,13.93
2019-02-05T14:07:56.709Z,11.40
2019-02-05T14:10:26.837Z,11.83
2019-02-05T14:12:54.551Z,11.73
2019-02-05T14:15:23.413Z,10.47
2019-02-05T14:17:51.216Z,9.50
2019-02-05T14:20:21.033Z,6.47
2019-02-05T14:22:48.770Z,7.63
2019-02-05T14:25:16.521Z,7.33
2019-02-05T14:27:44.236Z,9.33
2019-02-05T14:30:16.101Z,7.67
2019-02-05T14:32:43.845Z,6.70
2019-02-05T14:35:11.586Z,14.23
2019-02-05T14:37:39.692Z,13.87
2019-02-05T14:40:09.400Z,12.90
2019-02-05T14:42:37.160Z,8.80
2019-02-05T14:45:05.913Z,9.03
2019-02-05T14:47:33.723Z,10.60
2019-02-05T14:50:01.528Z,8.50
2019-02-05T14:52:29.233Z,7.57
2019-02-05T14:54:56.961Z,13.97
2019-02-05T14:57:24.701Z,12.60
2019-02-05T14:59:52.433Z,12.50
2019-02-05T15:02:20.160Z,11.07
2019-02-05T15:04:47.874Z,9.87
2019-02-05T15:07:15.624Z,17.43
2019-02-05T15:09:43.321Z,12.00
2019-02-05T15:12:11.053Z,10.90
2019-02-05T15:14:38.782Z,8.90
2019-02-05T15:17:06.553Z,8.97
2019-02-05T15:19:34.349Z,9.80
2019-02-05T15:22:02.174Z,12.00
2019-02-05T15:24:37.071Z,9.57
2019-02-05T15:26:59.574Z,14.07
2019-02-05T15:29:27.513Z,11.23
2019-02-05T15:31:55.193Z,12.77
2019-02-05T15:34:24.919Z,9.77
2019-02-05T15:36:52.669Z,10.50
2019-02-05T15:39:20.473Z,12.77
2019-02-05T15:41:48.188Z,9.60
2019-02-05T15:44:16.014Z,9.43
2019-02-05T15:46:43.668Z,13.57
2019-02-05T15:49:11.408Z,12.97
2019-02-05T15:51:39.166Z,12.00
2019-02-05T15:54:06.869Z,12.20
2019-02-05T15:56:34.700Z,10.27
2019-02-05T15:59:02.445Z,13.33
2019-02-05T16:01:30.177Z,11.20
2019-02-05T16:03:58.074Z,10.27
2019-02-05T16:06:25.790Z,9.83
2019-02-05T16:08:53.540Z,13.28
2019-02-05T16:11:21.274Z,11.93
2019-02-05T16:13:49.097Z,10.83
2019-02-05T16:16:16.901Z,11.30
2019-02-05T16:18:44.829Z,14.17
2019-02-05T16:21:12.585Z,12.83
2019-02-05T16:23:40.301Z,12.73
2019-02-05T16:26:08.061Z,12.30
2019-02-05T16:28:35.837Z,11.73
2019-02-05T16:31:03.549Z,12.67
2019-02-05T16:33:31.605Z,11.07
2019-02-05T16:36:01.478Z,11.93
2019-02-05T16:38:29.601Z,13.77
2019-02-05T16:40:57.322Z,10.90
2019-02-05T16:43:27.956Z,13.90
2019-02-05T16:45:54.622Z,11.07
2019-02-05T16:48:22.362Z,13.23
2019-02-05T16:50:50.350Z,12.53
2019-02-05T16:53:18.068Z,14.70
2019-02-05T16:55:45.790Z,13.57
2019-02-05T16:58:13.512Z,14.83
2019-02-05T17:00:41.236Z,11.60
2019-02-05T17:03:09.001Z,15.50
2019-02-05T17:05:37.617Z,12.77
2019-02-05T17:08:05.382Z,12.47
2019-02-05T17:10:33.104Z,15.93
2019-02-05T17:13:00.818Z,12.00
2019-02-05T17:15:28.577Z,12.87
2019-02-05T17:17:56.293Z,11.80
2019-02-05T17:20:26.227Z,12.57
2019-02-05T17:22:53.917Z,12.43
2019-02-05T17:25:22.642Z,12.23
2019-02-05T17:27:50.385Z,11.37
2019-02-05T17:30:20.389Z,13.50
2019-02-05T17:32:48.138Z,12.17
2019-02-05T17:35:15.854Z,12.40
2019-02-05T17:37:43.594Z,13.63
2019-02-05T17:40:13.893Z,16.80
2019-02-05T17:42:41.810Z,18.10
2019-02-05T17:45:12.881Z,22.90
2019-02-05T17:47:40.598Z,20.63
2019-02-05T17:50:08.333Z,16.07
2019-02-05T17:52:36.072Z,16.77
2019-02-05T17:55:05.085Z,17.17
2019-02-05T17:57:33.197Z,14.17
2019-02-05T18:00:01.213Z,14.47
2019-02-05T18:02:29.213Z,14.43
2019-02-05T18:04:56.913Z,17.60
2019-02-05T18:07:24.638Z,14.40
2019-02-05T18:09:52.356Z,17.50
2019-02-05T18:12:20.181Z,16.10
2019-02-05T18:14:55.317Z,17.50
2019-02-05T18:17:25.796Z,14.93
2019-02-05T18:19:57.252Z,14.83
2019-02-05T18:22:24.857Z,18.60
2019-02-05T18:24:52.584Z,15.93
2019-02-05T18:27:20.295Z,20.07
2019-02-05T18:29:48.030Z,16.87
2019-02-05T18:32:15.943Z,16.87
2019-02-05T18:34:43.795Z,17.50
2019-02-05T18:37:11.781Z,18.03
2019-02-05T18:39:40.161Z,19.67
2019-02-05T18:42:08.003Z,18.27
2019-02-05T18:44:37.696Z,18.10
2019-02-05T18:47:05.482Z,14.93
2019-02-05T18:49:33.289Z,16.03
2019-02-05T18:52:01.021Z,17.63
2019-02-05T18:54:28.729Z,16.53
2019-02-05T18:56:56.473Z,15.17
2019-02-05T18:59:24.290Z,15.57
2019-02-05T19:01:52.250Z,16.70
2019-02-05T19:04:19.972Z,14.87
2019-02-05T19:06:47.802Z,12.70
2019-02-05T19:09:15.777Z,12.17
2019-02-05T19:11:43.487Z,14.77
2019-02-05T19:14:11.218Z,14.77
2019-02-05T19:16:39.097Z,16.93
2019-02-05T19:19:14.572Z,16.17
2019-02-05T19:21:37.141Z,17.37
2019-02-05T19:24:14.169Z,18.67
2019-02-05T19:26:47.249Z,18.80
2019-02-05T19:29:18.922Z,20.37
2019-02-05T19:31:44.741Z,21.60
2019-02-05T19:34:12.702Z,18.73
2019-02-05T19:36:40.453Z,19.27
2019-02-05T19:39:08.297Z,20.17
2019-02-05T19:41:36.238Z,18.43
2019-02-05T19:44:04.210Z,24.50
2019-02-05T19:46:57.203Z,24.47
2019-02-05T19:49:28.377Z,30.60
2019-02-05T19:51:56.259Z,33.33
2019-02-05T19:54:24.349Z,34.67
2019-02-05T19:56:52.508Z,25.83
2019-02-05T19:59:20.837Z,34.13
2019-02-05T20:01:48.545Z,33.43
2019-02-05T20:04:16.282Z,32.97
2019-02-05T20:06:44.325Z,29.10
2019-02-05T20:09:13.256Z,32.67
2019-02-05T20:11:41.408Z,27.97
2019-02-05T20:14:11.455Z,29.83
2019-02-05T20:16:41.882Z,34.43
2019-02-05T20:19:09.946Z,34.33
2019-02-05T20:21:38.182Z,36.03
2019-02-05T20:24:05.880Z,35.63
2019-02-05T20:26:33.629Z,37.13
2019-02-05T20:29:01.671Z,46.63
2019-02-05T20:31:29.505Z,45.27
2019-02-05T20:33:57.653Z,51.20
2019-02-05T20:36:25.414Z,50.60
2019-02-05T20:38:53.210Z,65.70
2019-02-05T20:41:21.203Z,49.07
2019-02-05T20:43:49.067Z,49.00
2019-02-05T20:46:16.782Z,46.37
2019-02-05T20:48:44.505Z,40.50
2019-02-05T20:51:12.312Z,50.85
2019-02-05T20:53:40.140Z,43.83
2019-02-05T20:56:07.833Z,38.10
2019-02-05T20:58:35.567Z,44.48
2019-02-05T21:01:03.595Z,38.27
2019-02-05T21:03:31.302Z,38.13
2019-02-05T21:05:59.025Z,41.30
2019-02-05T21:08:26.722Z,49.15
2019-02-05T21:10:54.454Z,47.97
2019-02-05T21:13:22.265Z,54.05
2019-02-05T21:15:49.965Z,52.80
2019-02-05T21:18:17.708Z,53.47
2019-02-05T21:20:45.384Z,53.60
2019-02-05T21:23:13.133Z,69.17
2019-02-05T21:25:40.846Z,59.17
2019-02-05T21:28:08.601Z,57.37
2019-02-05T21:30:36.389Z,50.87
2019-02-05T21:33:04.281Z,58.67
2019-02-05T21:35:31.990Z,58.67
2019-02-05T21:37:59.911Z,49.07
2019-02-05T21:40:27.649Z,52.10
2019-02-05T21:42:55.446Z,58.47
2019-02-05T21:45:23.512Z,52.87
2019-02-05T21:47:51.235Z,44.70
2019-02-05T21:50:19.633Z,47.27
2019-02-05T21:52:48.659Z,52.10
2019-02-05T21:55:16.970Z,58.73
2019-02-05T21:57:44.750Z,46.23
2019-02-05T22:00:17.669Z,40.53
2019-02-05T22:02:45.485Z,41.83
2019-02-05T22:05:13.350Z,42.87
2019-02-05T22:07:41.137Z,43.53
2019-02-05T22:10:09.233Z,39.83
2019-02-05T22:12:37.373Z,39.63
2019-02-05T22:15:06.688Z,41.17
2019-02-05T22:17:34.568Z,42.70
2019-02-05T22:20:02.317Z,34.10
2019-02-05T22:22:30.080Z,38.87
2019-02-05T22:24:57.892Z,36.67
2019-02-05T22:27:25.617Z,33.27
2019-02-05T22:29:53.357Z,31.67
2019-02-05T22:32:21.272Z,31.77
2019-02-05T22:34:49.322Z,32.77
2019-02-05T22:37:17.048Z,28.90
2019-02-05T22:39:44.754Z,35.08
2019-02-05T22:42:12.508Z,30.17
2019-02-05T22:44:40.597Z,32.77
2019-02-05T22:47:08.318Z,33.83
2019-02-05T22:52:13.871Z,30.50
2019-02-05T22:54:41.573Z,36.20
2019-02-05T22:57:09.309Z,39.07
2019-02-05T22:59:37.326Z,38.87
2019-02-05T23:02:05.600Z,40.83
2019-02-05T23:05:05.159Z,38.70
2019-02-05T23:07:32.884Z,63.13
2019-02-05T23:10:27.544Z,54.00
2019-02-05T23:13:00.951Z,52.57
2019-02-05T23:15:29.249Z,55.60
2019-02-05T23:17:56.936Z,64.03
2019-02-05T23:20:24.729Z,48.63
2019-02-05T23:22:52.497Z,56.60
2019-02-05T23:25:20.262Z,61.67
2019-02-05T23:27:48.069Z,62.73
2019-02-05T23:30:24.605Z,50.47
2019-02-05T23:32:52.309Z,51.20
2019-02-05T23:35:20.054Z,60.93
2019-02-05T23:37:48.070Z,49.40
2019-02-05T23:40:15.804Z,48.93
2019-02-05T23:42:43.514Z,54.80
2019-02-05T23:45:11.460Z,52.27
2019-02-05T23:47:39.177Z,54.10
2019-02-05T23:50:09.084Z,75.83
2019-02-05T23:52:36.797Z,49.67
2019-02-05T23:55:05.814Z,45.40
2019-02-05T23:57:33.526Z,41.33
